createdAt,value
2023-03-11T00:02:14.882Z,64.02
2023-03-11T00:04:47.606Z,64.21
2023-03-11T00:07:20.308Z,64.41
2023-03-11T00:09:53.123Z,64.27
2023-03-11T00:12:28.883Z,64.22
2023-03-11T00:15:01.632Z,64.38
2023-03-11T00:17:34.343Z,64.69
2023-03-11T00:20:09.956Z,64.68
2023-03-11T00:22:42.673Z,64.60
2023-03-11T00:25:16.321Z,64.76
2023-03-11T00:27:49.118Z,64.75
2023-03-11T00:30:23.576Z,64.84
2023-03-11T00:32:58.867Z,64.75
2023-03-11T00:35:33.554Z,64.99
2023-03-11T00:38:12.648Z,65.16
2023-03-11T00:40:46.551Z,65.09
2023-03-11T00:43:20.024Z,65.11
2023-03-11T00:45:52.735Z,65.17
2023-03-11T00:48:25.470Z,65.27
2023-03-11T01:00:47.114Z,65.41
2023-03-11T01:03:21.163Z,65.49
2023-03-11T01:05:53.865Z,65.48
2023-03-11T01:08:27.152Z,65.33
2023-03-11T01:11:00.546Z,65.35
2023-03-11T01:13:33.989Z,65.50
2023-03-11T01:16:08.165Z,65.63
2023-03-11T01:18:40.917Z,65.80
2023-03-11T01:21:13.617Z,65.91
2023-03-11T01:23:46.327Z,66.05
2023-03-11T01:26:19.085Z,66.02
2023-03-11T01:28:51.686Z,66.19
2023-03-11T01:31:26.106Z,66.33
2023-03-11T01:33:58.919Z,66.21
2023-03-11T01:36:31.751Z,66.34
2023-03-11T01:39:04.509Z,66.43
2023-03-11T01:41:37.320Z,66.43
2023-03-11T01:44:12.298Z,66.51
2023-03-11T01:47:15.198Z,66.58
2023-03-11T01:49:48.072Z,66.61
2023-03-11T01:52:22.224Z,66.78
2023-03-11T01:54:56.346Z,66.97
2023-03-11T01:57:29.242Z,67.07
2023-03-11T02:00:06.886Z,67.31
2023-03-11T02:02:44.700Z,67.80
2023-03-11T02:05:18.262Z,67.73
2023-03-11T02:07:52.978Z,67.64
2023-03-11T02:10:25.684Z,67.46
2023-03-11T02:12:58.578Z,67.50
2023-03-11T02:15:31.985Z,67.74
2023-03-11T02:18:10.730Z,67.81
2023-03-11T02:20:50.675Z,68.01
2023-03-11T02:23:27.288Z,68.05
2023-03-11T02:26:08.838Z,68.17
2023-03-11T02:28:44.072Z,68.01
2023-03-11T02:31:17.756Z,68.11
2023-03-11T02:33:54.745Z,68.37
2023-03-11T02:36:39.969Z,68.58
2023-03-11T02:39:13.060Z,68.91
2023-03-11T02:41:48.325Z,68.96
2023-03-11T02:44:21.049Z,69.12
2023-03-11T02:46:56.055Z,69.32
2023-03-11T02:49:34.051Z,69.31
2023-03-11T02:52:09.867Z,69.36
2023-03-11T02:54:42.521Z,69.33
2023-03-11T02:57:15.251Z,69.08
2023-03-11T03:20:12.272Z,68.98
2023-03-11T03:22:45.210Z,68.92
2023-03-11T03:25:18.242Z,68.76
2023-03-11T03:27:51.059Z,68.63
2023-03-11T03:30:23.951Z,68.63
2023-03-11T03:32:56.662Z,68.41
2023-03-11T03:35:31.470Z,68.29
2023-03-11T03:38:04.863Z,68.15
2023-03-11T03:40:37.913Z,68.07
2023-03-11T03:43:10.647Z,68.00
2023-03-11T03:45:43.292Z,68.04
2023-03-11T03:48:15.951Z,68.23
2023-03-11T03:50:48.465Z,68.24
2023-03-11T03:53:21.233Z,68.20
2023-03-11T03:55:54.799Z,68.24
2023-03-11T03:58:27.433Z,68.24
2023-03-11T04:01:01.291Z,68.22
2023-03-11T04:03:35.352Z,68.26
2023-03-11T04:06:19.521Z,68.23
2023-03-11T04:08:54.413Z,68.30
2023-03-11T04:11:27.112Z,68.39
2023-03-11T04:13:59.983Z,68.53
2023-03-11T04:16:32.969Z,68.65
2023-03-11T04:19:06.005Z,68.79
2023-03-11T04:21:39.487Z,68.67
2023-03-11T04:24:12.568Z,68.65
2023-03-11T04:26:45.208Z,68.73
2023-03-11T04:29:17.895Z,68.80
2023-03-11T04:31:50.569Z,68.95
2023-03-11T04:34:23.394Z,69.00
2023-03-11T04:36:56.615Z,68.90
2023-03-11T04:39:29.459Z,69.01
2023-03-11T04:42:03.966Z,68.88
2023-03-11T04:44:39.392Z,68.94
2023-03-11T04:47:12.052Z,69.40
2023-03-11T04:49:44.676Z,69.72
2023-03-11T04:52:17.379Z,70.33
2023-03-11T04:54:49.940Z,70.81
2023-03-11T04:57:22.640Z,71.26
2023-03-11T04:59:55.357Z,71.23
2023-03-11T05:02:28.286Z,71.46
2023-03-11T05:05:00.998Z,71.49
2023-03-11T05:07:33.667Z,72.20
2023-03-11T05:10:07.194Z,72.75
2023-03-11T05:12:39.805Z,73.47
2023-03-11T05:15:13.474Z,74.08
2023-03-11T05:18:14.620Z,74.40
2023-03-11T05:37:04.201Z,75.97
2023-03-11T05:39:37.985Z,75.49
2023-03-11T05:42:15.469Z,75.75
2023-03-11T05:44:51.965Z,75.58
2023-03-11T05:47:27.880Z,75.79
2023-03-11T05:50:15.776Z,75.99
2023-03-11T05:53:08.752Z,76.10
2023-03-11T05:55:41.352Z,75.93
2023-03-11T05:58:14.860Z,75.46
2023-03-11T06:00:47.654Z,75.69
2023-03-11T06:03:20.742Z,75.95
2023-03-11T06:05:55.783Z,76.70
2023-03-11T06:08:29.978Z,76.34
2023-03-11T06:11:06.966Z,77.13
2023-03-11T06:13:40.099Z,77.37
2023-03-11T06:16:12.940Z,78.01
2023-03-11T06:18:45.584Z,77.44
2023-03-11T06:21:21.430Z,77.55
2023-03-11T06:23:54.750Z,77.36
2023-03-11T06:26:29.105Z,77.53
2023-03-11T06:29:01.974Z,78.49
2023-03-11T06:31:34.860Z,77.90
2023-03-11T06:34:07.829Z,77.78
2023-03-11T06:36:40.634Z,79.15
2023-03-11T06:39:15.887Z,78.89
2023-03-11T06:41:48.520Z,78.85
2023-03-11T06:44:24.835Z,79.22
2023-03-11T06:47:00.585Z,79.32
2023-03-11T06:49:33.537Z,79.09
2023-03-11T06:52:09.452Z,79.40
2023-03-11T06:54:42.582Z,79.82
2023-03-11T06:57:15.491Z,80.28
2023-03-11T06:59:48.079Z,80.10
2023-03-11T07:02:21.965Z,79.61
2023-03-11T07:04:54.757Z,80.08
2023-03-11T07:07:27.406Z,79.62
2023-03-11T07:10:00.434Z,79.83
2023-03-11T07:12:33.379Z,79.70
2023-03-11T07:15:08.796Z,80.07
2023-03-11T07:17:41.475Z,79.44
2023-03-11T07:20:16.664Z,80.04
2023-03-11T07:22:49.409Z,80.11
2023-03-11T07:25:22.059Z,80.18
2023-03-11T07:27:54.974Z,80.57
2023-03-11T07:30:29.707Z,81.00
2023-03-11T07:33:04.261Z,80.75
2023-03-11T07:35:38.328Z,80.28
2023-03-11T07:38:11.558Z,80.35
2023-03-11T07:40:45.250Z,80.43
2023-03-11T07:43:20.177Z,79.73
2023-03-11T07:46:03.292Z,79.54
2023-03-11T07:48:46.821Z,79.87
2023-03-11T07:51:21.978Z,79.77
2023-03-11T07:53:55.857Z,79.64
2023-03-11T07:56:41.496Z,79.70
2023-03-11T07:59:23.530Z,79.39
2023-03-11T08:01:57.167Z,79.20
2023-03-11T08:04:46.001Z,78.92
2023-03-11T08:07:40.279Z,79.25
2023-03-11T08:10:18.758Z,79.21
2023-03-11T08:12:57.973Z,78.20
2023-03-11T08:15:30.792Z,78.03
2023-03-11T08:18:05.315Z,78.18
2023-03-11T08:20:47.941Z,78.11
2023-03-11T08:23:24.879Z,77.91
2023-03-11T08:25:58.053Z,78.12
2023-03-11T08:28:30.832Z,78.26
2023-03-11T08:31:04.012Z,78.74
2023-03-11T08:33:37.484Z,78.77
2023-03-11T08:36:11.059Z,78.81
2023-03-11T08:38:47.660Z,79.23
2023-03-11T08:41:22.731Z,79.35
2023-03-11T08:43:55.548Z,78.92
2023-03-11T08:46:30.638Z,78.76
2023-03-11T08:49:04.930Z,78.87
2023-03-11T08:51:38.305Z,78.98
2023-03-11T08:54:11.003Z,78.92
2023-03-11T08:56:43.964Z,79.07
2023-03-11T08:59:16.602Z,78.88
2023-03-11T09:01:49.376Z,78.60
2023-03-11T09:04:22.017Z,78.75
2023-03-11T09:06:54.750Z,78.63
2023-03-11T09:09:56.011Z,78.51
2023-03-11T09:12:28.685Z,77.69
2023-03-11T09:15:02.066Z,77.05
2023-03-11T09:17:34.983Z,76.63
2023-03-11T09:20:13.270Z,75.84
2023-03-11T09:22:47.742Z,75.43
2023-03-11T09:25:20.774Z,75.54
2023-03-11T09:27:53.467Z,75.60
2023-03-11T09:30:26.130Z,75.27
2023-03-11T09:32:59.226Z,75.31
2023-03-11T09:35:35.487Z,75.06
2023-03-11T09:38:08.682Z,75.02
2023-03-11T09:40:54.873Z,75.46
2023-03-11T09:43:54.994Z,74.69
2023-03-11T09:46:46.251Z,74.34
2023-03-11T09:49:28.253Z,74.35
2023-03-11T09:52:08.397Z,74.09
2023-03-11T09:54:44.725Z,73.65
2023-03-11T09:57:20.883Z,74.14
2023-03-11T09:59:53.898Z,74.01
2023-03-11T10:02:28.337Z,73.94
2023-03-11T10:05:08.243Z,74.30
2023-03-11T10:07:43.155Z,74.05
2023-03-11T10:10:22.406Z,73.11
2023-03-11T10:13:03.922Z,72.80
2023-03-11T10:15:57.216Z,72.86
2023-03-11T10:18:44.660Z,72.98
2023-03-11T10:21:30.231Z,72.79
2023-03-11T10:24:16.102Z,72.95
2023-03-11T10:26:53.260Z,73.06
2023-03-11T10:29:31.230Z,72.89
2023-03-11T10:32:13.717Z,72.47
2023-03-11T10:34:51.337Z,72.16
2023-03-11T10:37:46.222Z,71.55
2023-03-11T10:40:35.834Z,71.12
2023-03-11T10:43:16.620Z,71.23
2023-03-11T10:45:57.206Z,70.54
2023-03-11T10:48:46.374Z,68.97
2023-03-11T10:51:23.722Z,69.34
2023-03-11T10:54:09.374Z,69.72
2023-03-11T10:56:43.959Z,69.65
2023-03-11T10:59:27.635Z,69.56
2023-03-11T11:02:03.457Z,69.79
2023-03-11T11:04:42.079Z,69.55
2023-03-11T11:07:31.537Z,69.39
2023-03-11T11:10:22.546Z,69.61
2023-03-11T11:13:04.152Z,68.84
2023-03-11T11:15:41.441Z,65.46
2023-03-11T11:18:22.479Z,65.36
2023-03-11T11:21:02.278Z,65.52
2023-03-11T11:23:42.828Z,64.85
2023-03-11T11:26:22.000Z,64.60
2023-03-11T11:29:14.191Z,63.73
2023-03-11T11:31:48.581Z,63.88
2023-03-11T11:34:41.247Z,63.32
2023-03-11T11:37:16.068Z,62.70
2023-03-11T11:39:52.708Z,62.74
2023-03-11T11:42:27.757Z,62.29
2023-03-11T11:45:06.514Z,62.34
2023-03-11T11:47:39.486Z,62.43
2023-03-11T11:50:19.892Z,62.61
2023-03-11T11:52:58.791Z,62.45
2023-03-11T11:55:34.067Z,62.18
2023-03-11T11:58:12.296Z,61.72
2023-03-11T12:00:57.714Z,62.04
2023-03-11T12:03:53.218Z,62.52
2023-03-11T12:06:34.552Z,62.54
2023-03-11T12:09:16.118Z,62.35
2023-03-11T12:11:56.422Z,62.61
2023-03-11T12:14:37.672Z,62.70
2023-03-11T12:17:13.223Z,62.15
2023-03-11T12:19:51.414Z,62.28
2023-03-11T12:22:50.406Z,62.09
2023-03-11T12:25:30.828Z,61.69
2023-03-11T12:28:17.908Z,61.47
2023-03-11T12:30:53.864Z,60.90
2023-03-11T12:33:33.383Z,61.08
2023-03-11T12:36:10.966Z,59.49
2023-03-11T12:38:47.706Z,59.98
2023-03-11T12:41:37.084Z,59.73
2023-03-11T12:44:28.876Z,59.63
2023-03-11T12:47:19.973Z,59.38
2023-03-11T12:49:55.331Z,60.12
2023-03-11T12:52:31.122Z,60.60
2023-03-11T12:55:38.246Z,60.51
2023-03-11T12:58:40.306Z,60.57
2023-03-11T13:01:34.827Z,60.55
2023-03-11T13:04:22.574Z,60.76
2023-03-11T13:07:20.585Z,60.34
2023-03-11T13:10:15.175Z,60.37
2023-03-11T13:12:50.483Z,60.24
2023-03-11T13:15:41.751Z,59.77
2023-03-11T13:18:28.218Z,59.31
2023-03-11T13:21:02.542Z,55.02
2023-03-11T13:23:43.690Z,55.52
2023-03-11T13:26:39.063Z,55.39
2023-03-11T13:29:39.071Z,55.23
2023-03-11T13:32:45.004Z,52.99
2023-03-11T13:35:32.868Z,54.10
2023-03-11T13:38:42.491Z,54.19
2023-03-11T13:41:23.653Z,52.66
2023-03-11T13:44:01.687Z,52.28
2023-03-11T13:46:39.981Z,53.63
2023-03-11T13:49:24.732Z,52.81
2023-03-11T13:51:59.487Z,51.00
2023-03-11T13:54:50.598Z,49.94
2023-03-11T13:57:32.822Z,48.77
2023-03-11T14:00:17.865Z,47.68
2023-03-11T14:02:55.434Z,47.50
2023-03-11T14:05:31.629Z,47.42
2023-03-11T14:08:20.914Z,46.47
2023-03-11T14:10:58.161Z,45.09
2023-03-11T14:13:34.300Z,44.60
2023-03-11T14:16:10.324Z,44.28
2023-03-11T14:18:46.566Z,45.13
2023-03-11T14:21:22.122Z,45.02
2023-03-11T14:23:57.102Z,45.06
2023-03-11T14:26:34.296Z,45.94
2023-03-11T14:29:16.698Z,47.40
2023-03-11T14:31:50.136Z,47.37
2023-03-11T14:34:25.433Z,46.09
2023-03-11T14:37:00.187Z,45.32
2023-03-11T14:39:35.934Z,45.00
2023-03-11T14:42:18.987Z,44.34
2023-03-11T14:44:57.309Z,44.03
2023-03-11T14:47:37.467Z,43.26
2023-03-11T14:50:16.895Z,43.62
2023-03-11T14:52:53.948Z,44.38
2023-03-11T14:55:32.199Z,44.97
2023-03-11T14:58:08.390Z,45.45
2023-03-11T15:00:46.197Z,45.16
2023-03-11T15:03:26.049Z,45.73
2023-03-11T15:06:03.602Z,45.24
2023-03-11T15:08:45.524Z,45.49
2023-03-11T15:11:28.442Z,45.97
2023-03-11T15:14:19.652Z,45.62
2023-03-11T15:16:53.017Z,46.07
2023-03-11T15:19:31.823Z,46.86
2023-03-11T15:22:27.452Z,47.07
2023-03-11T15:25:01.978Z,47.10
2023-03-11T15:27:37.223Z,47.64
2023-03-11T15:30:22.551Z,48.31
2023-03-11T15:32:56.394Z,48.83
2023-03-11T15:35:31.908Z,49.14
2023-03-11T15:38:21.548Z,49.52
2023-03-11T15:40:57.525Z,49.45
2023-03-11T15:43:33.187Z,49.17
2023-03-11T15:46:06.696Z,49.32
2023-03-11T15:48:41.306Z,49.25
2023-03-11T15:51:22.349Z,48.89
2023-03-11T15:53:55.104Z,48.71
2023-03-11T15:56:28.176Z,48.68
2023-03-11T15:59:01.145Z,49.06
2023-03-11T16:01:33.957Z,49.50
2023-03-11T16:04:07.862Z,49.90
2023-03-11T16:06:40.532Z,49.12
2023-03-11T16:09:14.752Z,48.90
2023-03-11T16:11:52.405Z,48.66
2023-03-11T16:14:25.115Z,48.43
2023-03-11T16:16:58.143Z,48.32
2023-03-11T16:19:31.284Z,48.48
2023-03-11T16:22:06.088Z,48.15
2023-03-11T16:24:39.135Z,48.24
2023-03-11T16:27:15.076Z,48.31
2023-03-11T16:29:48.465Z,48.30
2023-03-11T16:32:24.145Z,48.27
2023-03-11T16:34:56.959Z,48.24
2023-03-11T16:37:29.667Z,48.11
2023-03-11T16:40:02.503Z,48.18
2023-03-11T16:42:35.488Z,47.80
2023-03-11T16:45:10.104Z,46.46
2023-03-11T16:47:42.873Z,45.58
2023-03-11T16:50:15.770Z,45.38
2023-03-11T16:52:49.108Z,44.75
2023-03-11T16:55:21.981Z,44.10
2023-03-11T16:57:56.227Z,43.57
2023-03-11T17:00:29.000Z,43.47
2023-03-11T17:03:01.686Z,42.89
2023-03-11T17:05:34.414Z,43.01
2023-03-11T17:08:10.650Z,42.18
2023-03-11T17:10:45.824Z,42.31
2023-03-11T17:13:19.199Z,42.38
2023-03-11T17:16:03.177Z,42.24
2023-03-11T17:18:36.122Z,42.02
2023-03-11T17:21:14.304Z,41.87
2023-03-11T17:23:47.203Z,41.70
2023-03-11T17:26:20.955Z,41.64
2023-03-11T17:28:53.579Z,41.83
2023-03-11T17:31:26.496Z,41.99
2023-03-11T17:33:59.418Z,41.85
2023-03-11T17:36:32.196Z,42.15
2023-03-11T17:39:05.003Z,42.40
2023-03-11T17:41:37.693Z,42.38
2023-03-11T17:44:11.281Z,42.61
2023-03-11T17:46:44.201Z,42.68
2023-03-11T17:49:18.001Z,42.96
2023-03-11T17:51:50.622Z,43.16
2023-03-11T17:54:23.472Z,43.25
2023-03-11T17:56:57.135Z,43.30
2023-03-11T17:59:29.987Z,43.32
2023-03-11T18:02:02.857Z,43.40
2023-03-11T18:04:35.848Z,43.49
2023-03-11T18:07:08.722Z,43.66
2023-03-11T18:09:41.489Z,43.75
2023-03-11T18:12:14.080Z,44.05
2023-03-11T18:14:46.919Z,44.29
2023-03-11T18:17:21.187Z,44.51
2023-03-11T18:19:54.010Z,44.70
2023-03-11T18:22:26.639Z,45.03
2023-03-11T18:24:59.264Z,45.42
2023-03-11T18:27:32.153Z,45.40
2023-03-11T18:30:05.074Z,45.51
2023-03-11T18:32:37.798Z,45.79
2023-03-11T18:35:14.224Z,45.92
2023-03-11T18:37:46.888Z,46.15
2023-03-11T18:40:23.381Z,46.55
2023-03-11T18:42:56.525Z,46.52
2023-03-11T18:45:29.338Z,46.52
2023-03-11T18:48:02.262Z,46.63
2023-03-11T18:50:35.163Z,46.72
2023-03-11T19:02:57.217Z,46.58
2023-03-11T19:05:29.909Z,46.56
2023-03-11T19:08:02.558Z,46.40
2023-03-11T19:10:35.407Z,46.03
2023-03-11T19:13:08.265Z,45.80
2023-03-11T19:15:43.117Z,45.73
2023-03-11T19:18:16.142Z,45.67
2023-03-11T19:20:59.549Z,45.41
2023-03-11T19:23:33.153Z,45.19
2023-03-11T19:26:06.217Z,45.30
2023-03-11T19:28:39.360Z,45.28
2023-03-11T19:31:12.089Z,44.91
2023-03-11T19:33:47.305Z,44.57
2023-03-11T19:36:20.362Z,44.39
2023-03-11T19:38:53.313Z,43.71
2023-03-11T19:41:25.981Z,42.88
2023-03-11T19:43:58.910Z,42.67
2023-03-11T19:46:34.696Z,42.81
2023-03-11T19:49:08.121Z,42.51
2023-03-11T19:51:49.514Z,42.32
2023-03-11T19:54:23.528Z,42.08
2023-03-11T19:56:56.402Z,42.26
2023-03-11T19:59:30.172Z,42.50
2023-03-11T20:02:03.106Z,42.64
2023-03-11T20:04:36.515Z,42.63
2023-03-11T20:07:09.638Z,42.78
2023-03-11T20:09:42.402Z,43.03
2023-03-11T20:12:15.146Z,43.29
2023-03-11T20:14:47.870Z,43.38
2023-03-11T20:17:20.599Z,43.40
2023-03-11T20:19:53.431Z,43.58
2023-03-11T20:22:26.438Z,43.65
2023-03-11T20:24:59.590Z,44.17
2023-03-11T20:27:32.456Z,45.36
2023-03-11T20:30:06.109Z,46.65
2023-03-11T20:32:38.910Z,47.48
2023-03-11T20:35:12.278Z,47.69
2023-03-11T20:37:45.710Z,48.85
2023-03-11T20:40:20.941Z,49.54
2023-03-11T20:42:53.783Z,50.01
2023-03-11T20:45:27.261Z,50.70
2023-03-11T20:48:00.764Z,50.46
2023-03-11T20:50:33.584Z,50.74
2023-03-11T20:53:06.866Z,50.87
2023-03-11T20:55:42.090Z,51.14
2023-03-11T20:58:14.984Z,51.34
2023-03-11T21:00:47.620Z,51.56
2023-03-11T21:03:20.974Z,51.64
2023-03-11T21:05:53.849Z,51.58
2023-03-11T21:08:26.782Z,51.53
2023-03-11T21:11:03.155Z,51.38
2023-03-11T21:13:36.365Z,51.71
2023-03-11T21:16:11.695Z,51.51
2023-03-11T21:18:49.285Z,51.62
2023-03-11T21:21:23.277Z,52.27
2023-03-11T21:23:56.064Z,52.76
2023-03-11T21:26:29.346Z,53.07
2023-03-11T21:29:02.475Z,52.86
2023-03-11T21:31:35.396Z,52.94
2023-03-11T21:34:08.648Z,53.02
2023-03-11T21:36:41.883Z,52.94
2023-03-11T21:39:15.313Z,52.55
2023-03-11T21:41:48.199Z,53.24
2023-03-11T21:44:21.683Z,53.57
2023-03-11T21:46:54.464Z,53.56
2023-03-11T21:49:27.779Z,53.48
2023-03-11T21:52:02.280Z,53.43
2023-03-11T21:54:35.610Z,53.65
2023-03-11T21:57:09.108Z,53.80
2023-03-11T21:59:41.964Z,53.34
2023-03-11T22:09:31.250Z,52.50
2023-03-11T22:12:04.251Z,52.58
2023-03-11T22:14:37.039Z,52.69
2023-03-11T22:17:09.816Z,52.73
2023-03-11T22:19:42.873Z,53.17
2023-03-11T22:22:15.789Z,53.07
2023-03-11T22:24:48.612Z,53.44
2023-03-11T22:27:21.354Z,53.21
2023-03-11T22:29:54.080Z,53.27
2023-03-11T22:32:26.920Z,53.61
2023-03-11T22:34:59.631Z,53.36
2023-03-11T22:37:32.641Z,53.84
2023-03-11T22:40:08.911Z,53.69
2023-03-11T22:42:41.941Z,53.61
2023-03-11T22:45:15.089Z,53.42
2023-03-11T22:47:47.868Z,53.17
2023-03-11T22:50:21.298Z,53.17
2023-03-11T22:52:53.982Z,53.09
2023-03-11T22:55:26.670Z,53.01
2023-03-11T22:57:59.579Z,52.89
2023-03-11T23:00:33.250Z,52.81
2023-03-11T23:03:05.864Z,52.80
2023-03-11T23:05:42.383Z,52.75
2023-03-11T23:08:17.536Z,52.60
2023-03-11T23:10:53.655Z,52.69
2023-03-11T23:13:27.131Z,52.50
2023-03-11T23:16:04.637Z,52.58
2023-03-11T23:18:38.328Z,52.33
2023-03-11T23:21:20.121Z,52.30
2023-03-11T23:23:53.268Z,52.33
2023-03-11T23:26:26.720Z,52.36
2023-03-11T23:29:01.486Z,52.38
2023-03-11T23:31:34.276Z,52.31
2023-03-11T23:34:07.439Z,52.22
2023-03-11T23:36:40.148Z,52.08
2023-03-11T23:39:12.841Z,52.20
2023-03-11T23:41:46.112Z,52.67
2023-03-11T23:44:19.095Z,52.45
2023-03-11T23:46:53.574Z,52.54
2023-03-11T23:49:27.819Z,52.76
2023-03-11T23:52:00.586Z,52.70
2023-03-11T23:54:33.479Z,53.04
2023-03-11T23:57:06.453Z,53.28
2023-03-11T23:59:39.185Z,53.44
